sensor_id;sensor_type;location;lat;lon;timestamp;P1;durP1;ratioP1;P2;durP2;ratioP2
11711;SDS011;5912;51.034;6.984;2022-09-24T00:01:53;5.95;;;4.47;;
11711;SDS011;5912;51.034;6.984;2022-09-24T00:04:18;5.07;;;4.15;;
11711;SDS011;5912;51.034;6.984;2022-09-24T00:06:45;5.70;;;4.38;;
11711;SDS011;5912;51.034;6.984;2022-09-24T00:09:12;6.00;;;4.30;;
11711;SDS011;5912;51.034;6.984;2022-09-24T00:11:40;6.28;;;4.50;;
11711;SDS011;5912;51.034;6.984;2022-09-24T00:14:07;5.28;;;4.57;;
11711;SDS011;5912;51.034;6.984;2022-09-24T00:16:33;6.65;;;4.60;;
11711;SDS011;5912;51.034;6.984;2022-09-24T00:18:59;7.40;;;4.40;;
11711;SDS011;5912;51.034;6.984;2022-09-24T00:21:27;5.70;;;4.57;;
11711;SDS011;5912;51.034;6.984;2022-09-24T00:24:04;6.45;;;4.75;;
11711;SDS011;5912;51.034;6.984;2022-09-24T00:26:32;5.80;;;4.63;;
11711;SDS011;5912;51.034;6.984;2022-09-24T00:29:16;7.72;;;4.68;;
11711;SDS011;5912;51.034;6.984;2022-09-24T00:31:46;7.93;;;4.55;;
11711;SDS011;5912;51.034;6.984;2022-09-24T00:34:12;6.75;;;5.13;;
11711;SDS011;5912;51.034;6.984;2022-09-24T00:36:38;6.32;;;5.07;;
11711;SDS011;5912;51.034;6.984;2022-09-24T00:39:04;5.72;;;4.40;;
11711;SDS011;5912;51.034;6.984;2022-09-24T00:41:31;7.25;;;5.15;;
11711;SDS011;5912;51.034;6.984;2022-09-24T00:43:59;11.48;;;5.40;;
11711;SDS011;5912;51.034;6.984;2022-09-24T00:46:37;9.80;;;5.50;;
11711;SDS011;5912;51.034;6.984;2022-09-24T00:49:15;7.18;;;5.13;;
11711;SDS011;5912;51.034;6.984;2022-09-24T00:51:43;5.55;;;4.75;;
11711;SDS011;5912;51.034;6.984;2022-09-24T00:54:17;6.68;;;4.63;;
11711;SDS011;5912;51.034;6.984;2022-09-24T00:56:46;8.77;;;5.00;;
11711;SDS011;5912;51.034;6.984;2022-09-24T00:59:14;6.97;;;4.93;;
11711;SDS011;5912;51.034;6.984;2022-09-24T01:01:42;6.90;;;4.65;;
11711;SDS011;5912;51.034;6.984;2022-09-24T01:04:13;7.07;;;4.75;;
11711;SDS011;5912;51.034;6.984;2022-09-24T01:06:40;5.10;;;4.28;;
11711;SDS011;5912;51.034;6.984;2022-09-24T01:09:05;5.70;;;4.38;;
11711;SDS011;5912;51.034;6.984;2022-09-24T01:11:39;5.07;;;3.97;;
11711;SDS011;5912;51.034;6.984;2022-09-24T01:14:22;6.50;;;4.35;;
11711;SDS011;5912;51.034;6.984;2022-09-24T01:16:53;5.38;;;4.40;;
11711;SDS011;5912;51.034;6.984;2022-09-24T01:31:02;8.05;;;4.57;;
11711;SDS011;5912;51.034;6.984;2022-09-24T01:33:34;8.30;;;4.75;;
11711;SDS011;5912;51.034;6.984;2022-09-24T01:36:01;5.47;;;4.30;;
11711;SDS011;5912;51.034;6.984;2022-09-24T01:38:32;4.28;;;3.58;;
11711;SDS011;5912;51.034;6.984;2022-09-24T01:41:04;5.05;;;4.32;;
11711;SDS011;5912;51.034;6.984;2022-09-24T01:43:32;5.00;;;4.20;;
11711;SDS011;5912;51.034;6.984;2022-09-24T01:45:58;4.32;;;3.65;;
11711;SDS011;5912;51.034;6.984;2022-09-24T01:51:45;6.80;;;4.68;;
11711;SDS011;5912;51.034;6.984;2022-09-24T01:54:23;6.68;;;4.53;;
11711;SDS011;5912;51.034;6.984;2022-09-24T01:56:55;6.07;;;4.68;;
11711;SDS011;5912;51.034;6.984;2022-09-24T01:59:26;6.72;;;4.72;;
11711;SDS011;5912;51.034;6.984;2022-09-24T02:02:03;7.35;;;4.65;;
11711;SDS011;5912;51.034;6.984;2022-09-24T02:04:30;6.47;;;4.68;;
11711;SDS011;5912;51.034;6.984;2022-09-24T02:07:02;5.70;;;4.63;;
11711;SDS011;5912;51.034;6.984;2022-09-24T02:09:35;6.07;;;4.80;;
11711;SDS011;5912;51.034;6.984;2022-09-24T02:12:04;5.30;;;4.03;;
11711;SDS011;5912;51.034;6.984;2022-09-24T02:14:44;5.97;;;4.53;;
11711;SDS011;5912;51.034;6.984;2022-09-24T02:17:15;6.03;;;4.55;;
11711;SDS011;5912;51.034;6.984;2022-09-24T02:19:41;4.75;;;4.25;;
11711;SDS011;5912;51.034;6.984;2022-09-24T02:22:09;4.10;;;3.70;;
11711;SDS011;5912;51.034;6.984;2022-09-24T02:27:08;5.05;;;4.00;;
11711;SDS011;5912;51.034;6.984;2022-09-24T02:29:33;5.13;;;3.95;;
11711;SDS011;5912;51.034;6.984;2022-09-24T02:31:59;5.03;;;4.35;;
11711;SDS011;5912;51.034;6.984;2022-09-24T02:34:37;4.10;;;3.55;;
11711;SDS011;5912;51.034;6.984;2022-09-24T02:37:07;5.32;;;3.80;;
11711;SDS011;5912;51.034;6.984;2022-09-24T02:39:35;5.40;;;4.45;;
11711;SDS011;5912;51.034;6.984;2022-09-24T02:42:00;6.28;;;5.22;;
11711;SDS011;5912;51.034;6.984;2022-09-24T02:44:29;7.43;;;4.75;;
11711;SDS011;5912;51.034;6.984;2022-09-24T02:46:55;5.57;;;4.70;;
11711;SDS011;5912;51.034;6.984;2022-09-24T02:49:20;5.28;;;4.13;;
11711;SDS011;5912;51.034;6.984;2022-09-24T02:51:46;5.72;;;4.30;;
11711;SDS011;5912;51.034;6.984;2022-09-24T02:54:11;6.15;;;3.92;;
11711;SDS011;5912;51.034;6.984;2022-09-24T02:56:37;5.57;;;4.43;;
11711;SDS011;5912;51.034;6.984;2022-09-24T02:59:03;5.35;;;4.03;;
11711;SDS011;5912;51.034;6.984;2022-09-24T03:01:29;9.00;;;4.85;;
11711;SDS011;5912;51.034;6.984;2022-09-24T03:03:55;5.15;;;4.18;;
11711;SDS011;5912;51.034;6.984;2022-09-24T03:06:20;6.63;;;4.88;;
11711;SDS011;5912;51.034;6.984;2022-09-24T03:08:46;4.95;;;4.32;;
11711;SDS011;5912;51.034;6.984;2022-09-24T03:11:11;6.30;;;4.57;;
11711;SDS011;5912;51.034;6.984;2022-09-24T03:13:38;6.07;;;4.55;;
11711;SDS011;5912;51.034;6.984;2022-09-24T03:16:03;6.45;;;4.05;;
11711;SDS011;5912;51.034;6.984;2022-09-24T03:18:30;5.32;;;4.22;;
11711;SDS011;5912;51.034;6.984;2022-09-24T03:21:00;5.18;;;4.03;;
11711;SDS011;5912;51.034;6.984;2022-09-24T03:23:29;5.60;;;4.18;;
11711;SDS011;5912;51.034;6.984;2022-09-24T03:25:56;4.30;;;3.90;;
11711;SDS011;5912;51.034;6.984;2022-09-24T03:28:21;5.75;;;4.22;;
11711;SDS011;5912;51.034;6.984;2022-09-24T03:30:47;5.53;;;4.32;;
11711;SDS011;5912;51.034;6.984;2022-09-24T03:33:32;5.35;;;4.55;;
11711;SDS011;5912;51.034;6.984;2022-09-24T03:36:02;4.75;;;4.25;;
11711;SDS011;5912;51.034;6.984;2022-09-24T03:38:35;6.00;;;4.70;;
11711;SDS011;5912;51.034;6.984;2022-09-24T03:41:03;6.07;;;4.90;;
11711;SDS011;5912;51.034;6.984;2022-09-24T03:43:29;5.75;;;5.10;;
11711;SDS011;5912;51.034;6.984;2022-09-24T03:45:55;4.95;;;4.45;;
11711;SDS011;5912;51.034;6.984;2022-09-24T03:48:21;5.95;;;4.40;;
11711;SDS011;5912;51.034;6.984;2022-09-24T03:50:47;7.32;;;5.28;;
11711;SDS011;5912;51.034;6.984;2022-09-24T03:53:13;5.03;;;4.45;;
11711;SDS011;5912;51.034;6.984;2022-09-24T03:55:46;5.80;;;4.53;;
11711;SDS011;5912;51.034;6.984;2022-09-24T03:58:16;4.68;;;4.05;;
11711;SDS011;5912;51.034;6.984;2022-09-24T04:00:41;6.30;;;4.80;;
11711;SDS011;5912;51.034;6.984;2022-09-24T04:03:07;5.47;;;4.38;;
11711;SDS011;5912;51.034;6.984;2022-09-24T04:05:33;6.90;;;4.85;;
11711;SDS011;5912;51.034;6.984;2022-09-24T04:08:00;5.20;;;4.65;;
11711;SDS011;5912;51.034;6.984;2022-09-24T04:10:26;6.18;;;4.70;;
11711;SDS011;5912;51.034;6.984;2022-09-24T04:12:52;5.22;;;4.60;;
11711;SDS011;5912;51.034;6.984;2022-09-24T04:15:18;5.75;;;4.43;;
11711;SDS011;5912;51.034;6.984;2022-09-24T04:17:50;6.45;;;4.32;;
11711;SDS011;5912;51.034;6.984;2022-09-24T04:20:20;7.43;;;4.80;;
11711;SDS011;5912;51.034;6.984;2022-09-24T04:22:50;5.55;;;4.30;;
11711;SDS011;5912;51.034;6.984;2022-09-24T04:25:16;7.60;;;5.05;;
11711;SDS011;5912;51.034;6.984;2022-09-24T04:27:42;5.72;;;4.63;;
11711;SDS011;5912;51.034;6.984;2022-09-24T04:30:09;5.70;;;4.25;;
11711;SDS011;5912;51.034;6.984;2022-09-24T04:32:38;7.28;;;4.60;;
11711;SDS011;5912;51.034;6.984;2022-09-24T04:35:05;4.55;;;4.00;;
11711;SDS011;5912;51.034;6.984;2022-09-24T04:37:30;5.32;;;4.72;;
11711;SDS011;5912;51.034;6.984;2022-09-24T04:39:55;5.82;;;4.45;;
11711;SDS011;5912;51.034;6.984;2022-09-24T04:42:21;5.18;;;4.38;;
11711;SDS011;5912;51.034;6.984;2022-09-24T04:44:46;7.25;;;4.28;;
11711;SDS011;5912;51.034;6.984;2022-09-24T04:47:14;8.15;;;4.53;;
11711;SDS011;5912;51.034;6.984;2022-09-24T04:49:40;5.38;;;4.82;;
11711;SDS011;5912;51.034;6.984;2022-09-24T04:52:09;7.15;;;4.57;;
11711;SDS011;5912;51.034;6.984;2022-09-24T04:54:41;6.90;;;4.68;;
11711;SDS011;5912;51.034;6.984;2022-09-24T04:57:10;7.82;;;4.53;;
11711;SDS011;5912;51.034;6.984;2022-09-24T04:59:36;6.18;;;4.88;;
11711;SDS011;5912;51.034;6.984;2022-09-24T05:02:01;7.45;;;5.13;;
11711;SDS011;5912;51.034;6.984;2022-09-24T05:04:26;4.70;;;4.13;;
11711;SDS011;5912;51.034;6.984;2022-09-24T05:06:52;7.03;;;4.68;;
11711;SDS011;5912;51.034;6.984;2022-09-24T05:09:18;6.57;;;4.70;;
11711;SDS011;5912;51.034;6.984;2022-09-24T05:11:43;5.72;;;4.63;;
11711;SDS011;5912;51.034;6.984;2022-09-24T05:14:09;5.47;;;4.20;;
11711;SDS011;5912;51.034;6.984;2022-09-24T05:16:34;3.97;;;3.58;;
11711;SDS011;5912;51.034;6.984;2022-09-24T05:18:59;5.72;;;5.13;;
11711;SDS011;5912;51.034;6.984;2022-09-24T05:21:25;5.40;;;4.90;;
11711;SDS011;5912;51.034;6.984;2022-09-24T05:23:51;5.50;;;4.90;;
11711;SDS011;5912;51.034;6.984;2022-09-24T05:26:16;5.57;;;4.43;;
11711;SDS011;5912;51.034;6.984;2022-09-24T05:29:00;9.10;;;6.25;;
11711;SDS011;5912;51.034;6.984;2022-09-24T05:31:25;7.95;;;5.40;;
11711;SDS011;5912;51.034;6.984;2022-09-24T05:33:51;6.38;;;5.03;;
11711;SDS011;5912;51.034;6.984;2022-09-24T05:36:16;8.13;;;5.22;;
11711;SDS011;5912;51.034;6.984;2022-09-24T05:38:43;6.45;;;5.03;;
11711;SDS011;5912;51.034;6.984;2022-09-24T05:41:08;8.02;;;5.38;;
11711;SDS011;5912;51.034;6.984;2022-09-24T05:43:34;5.30;;;4.68;;
11711;SDS011;5912;51.034;6.984;2022-09-24T05:46:00;8.73;;;5.50;;
11711;SDS011;5912;51.034;6.984;2022-09-24T05:48:26;7.45;;;5.25;;
11711;SDS011;5912;51.034;6.984;2022-09-24T05:50:52;5.72;;;5.05;;
11711;SDS011;5912;51.034;6.984;2022-09-24T05:53:19;5.13;;;4.38;;
11711;SDS011;5912;51.034;6.984;2022-09-24T05:55:46;5.68;;;4.72;;
11711;SDS011;5912;51.034;6.984;2022-09-24T05:58:11;6.90;;;5.05;;
11711;SDS011;5912;51.034;6.984;2022-09-24T06:00:38;5.68;;;4.85;;
11711;SDS011;5912;51.034;6.984;2022-09-24T06:03:10;6.63;;;4.60;;
11711;SDS011;5912;51.034;6.984;2022-09-24T06:05:37;6.75;;;4.35;;
11711;SDS011;5912;51.034;6.984;2022-09-24T06:08:03;5.97;;;4.20;;
11711;SDS011;5912;51.034;6.984;2022-09-24T06:10:30;5.32;;;4.82;;
11711;SDS011;5912;51.034;6.984;2022-09-24T06:13:05;5.95;;;4.53;;
11711;SDS011;5912;51.034;6.984;2022-09-24T06:15:30;5.05;;;3.70;;
11711;SDS011;5912;51.034;6.984;2022-09-24T06:17:56;5.38;;;4.60;;
11711;SDS011;5912;51.034;6.984;2022-09-24T06:20:21;5.47;;;4.22;;
11711;SDS011;5912;51.034;6.984;2022-09-24T06:22:47;7.38;;;4.72;;
11711;SDS011;5912;51.034;6.984;2022-09-24T06:25:12;4.75;;;4.10;;
11711;SDS011;5912;51.034;6.984;2022-09-24T06:27:37;7.00;;;4.10;;
11711;SDS011;5912;51.034;6.984;2022-09-24T06:30:03;5.55;;;4.30;;
11711;SDS011;5912;51.034;6.984;2022-09-24T06:32:29;4.50;;;4.03;;
11711;SDS011;5912;51.034;6.984;2022-09-24T06:34:54;6.60;;;4.30;;
11711;SDS011;5912;51.034;6.984;2022-09-24T06:37:19;4.38;;;3.90;;
11711;SDS011;5912;51.034;6.984;2022-09-24T06:39:45;5.65;;;4.53;;
11711;SDS011;5912;51.034;6.984;2022-09-24T06:42:10;7.78;;;5.00;;
11711;SDS011;5912;51.034;6.984;2022-09-24T06:44:36;7.95;;;4.40;;
11711;SDS011;5912;51.034;6.984;2022-09-24T06:47:01;5.00;;;4.20;;
11711;SDS011;5912;51.034;6.984;2022-09-24T06:49:27;5.55;;;4.50;;
11711;SDS011;5912;51.034;6.984;2022-09-24T06:51:53;5.68;;;4.50;;
11711;SDS011;5912;51.034;6.984;2022-09-24T06:54:18;5.45;;;4.60;;
11711;SDS011;5912;51.034;6.984;2022-09-24T06:56:44;5.70;;;4.60;;
11711;SDS011;5912;51.034;6.984;2022-09-24T06:59:09;4.68;;;4.18;;
11711;SDS011;5912;51.034;6.984;2022-09-24T07:01:35;7.05;;;4.53;;
11711;SDS011;5912;51.034;6.984;2022-09-24T07:04:00;6.57;;;4.20;;
11711;SDS011;5912;51.034;6.984;2022-09-24T07:06:26;4.88;;;4.45;;
11711;SDS011;5912;51.034;6.984;2022-09-24T07:09:11;7.20;;;4.38;;
11711;SDS011;5912;51.034;6.984;2022-09-24T07:11:36;7.10;;;4.18;;
11711;SDS011;5912;51.034;6.984;2022-09-24T07:14:01;5.40;;;4.00;;
11711;SDS011;5912;51.034;6.984;2022-09-24T07:16:27;5.28;;;3.90;;
11711;SDS011;5912;51.034;6.984;2022-09-24T07:18:52;5.13;;;4.63;;
11711;SDS011;5912;51.034;6.984;2022-09-24T07:21:17;7.82;;;4.63;;
11711;SDS011;5912;51.034;6.984;2022-09-24T07:23:43;5.93;;;4.05;;
11711;SDS011;5912;51.034;6.984;2022-09-24T07:26:08;5.60;;;4.40;;
11711;SDS011;5912;51.034;6.984;2022-09-24T07:28:33;5.22;;;4.35;;
11711;SDS011;5912;51.034;6.984;2022-09-24T07:30:58;5.00;;;4.18;;
11711;SDS011;5912;51.034;6.984;2022-09-24T07:33:24;8.27;;;3.95;;
11711;SDS011;5912;51.034;6.984;2022-09-24T07:35:49;6.18;;;4.50;;
11711;SDS011;5912;51.034;6.984;2022-09-24T07:38:15;6.07;;;4.28;;
11711;SDS011;5912;51.034;6.984;2022-09-24T07:40:40;5.88;;;4.70;;
11711;SDS011;5912;51.034;6.984;2022-09-24T07:43:06;9.60;;;4.72;;
11711;SDS011;5912;51.034;6.984;2022-09-24T07:45:36;6.22;;;4.38;;
11711;SDS011;5912;51.034;6.984;2022-09-24T07:48:03;5.45;;;4.03;;
11711;SDS011;5912;51.034;6.984;2022-09-24T07:50:30;5.80;;;4.10;;
11711;SDS011;5912;51.034;6.984;2022-09-24T07:52:58;5.43;;;4.40;;
11711;SDS011;5912;51.034;6.984;2022-09-24T07:55:24;4.93;;;4.25;;
11711;SDS011;5912;51.034;6.984;2022-09-24T07:57:51;5.03;;;4.30;;
11711;SDS011;5912;51.034;6.984;2022-09-24T08:00:18;5.78;;;4.28;;
11711;SDS011;5912;51.034;6.984;2022-09-24T08:02:45;8.82;;;4.80;;
11711;SDS011;5912;51.034;6.984;2022-09-24T08:05:12;5.55;;;4.60;;
11711;SDS011;5912;51.034;6.984;2022-09-24T08:07:39;5.68;;;4.60;;
11711;SDS011;5912;51.034;6.984;2022-09-24T08:10:05;5.57;;;4.40;;
11711;SDS011;5912;51.034;6.984;2022-09-24T08:12:31;5.07;;;4.25;;
11711;SDS011;5912;51.034;6.984;2022-09-24T08:14:57;4.85;;;4.03;;
11711;SDS011;5912;51.034;6.984;2022-09-24T08:17:22;5.32;;;4.35;;
11711;SDS011;5912;51.034;6.984;2022-09-24T08:19:47;4.18;;;3.78;;
11711;SDS011;5912;51.034;6.984;2022-09-24T08:22:13;5.35;;;4.00;;
11711;SDS011;5912;51.034;6.984;2022-09-24T08:24:38;7.57;;;4.75;;
11711;SDS011;5912;51.034;6.984;2022-09-24T08:27:05;7.00;;;4.00;;
11711;SDS011;5912;51.034;6.984;2022-09-24T08:29:30;8.23;;;4.38;;
11711;SDS011;5912;51.034;6.984;2022-09-24T08:31:55;7.55;;;4.32;;
11711;SDS011;5912;51.034;6.984;2022-09-24T08:34:20;5.25;;;3.88;;
11711;SDS011;5912;51.034;6.984;2022-09-24T08:36:46;4.65;;;3.88;;
11711;SDS011;5912;51.034;6.984;2022-09-24T08:39:11;4.85;;;3.78;;
11711;SDS011;5912;51.034;6.984;2022-09-24T08:50:24;5.88;;;4.70;;
11711;SDS011;5912;51.034;6.984;2022-09-24T08:53:04;5.93;;;5.05;;
11711;SDS011;5912;51.034;6.984;2022-09-24T08:55:45;8.15;;;5.35;;
11711;SDS011;5912;51.034;6.984;2022-09-24T08:58:33;7.60;;;4.85;;
11711;SDS011;5912;51.034;6.984;2022-09-24T09:11:10;5.57;;;4.80;;
11711;SDS011;5912;51.034;6.984;2022-09-24T09:13:39;5.85;;;4.70;;
11711;SDS011;5912;51.034;6.984;2022-09-24T09:16:15;6.22;;;4.78;;
11711;SDS011;5912;51.034;6.984;2022-09-24T09:18:46;7.03;;;5.40;;
11711;SDS011;5912;51.034;6.984;2022-09-24T09:21:15;8.30;;;6.75;;
11711;SDS011;5912;51.034;6.984;2022-09-24T09:23:44;8.27;;;5.90;;
11711;SDS011;5912;51.034;6.984;2022-09-24T09:26:14;8.77;;;6.68;;
11711;SDS011;5912;51.034;6.984;2022-09-24T09:28:42;7.45;;;5.80;;
11711;SDS011;5912;51.034;6.984;2022-09-24T09:43:02;9.10;;;5.70;;
11711;SDS011;5912;51.034;6.984;2022-09-24T09:45:43;9.25;;;6.10;;
11711;SDS011;5912;51.034;6.984;2022-09-24T09:48:19;11.90;;;6.80;;
11711;SDS011;5912;51.034;6.984;2022-09-24T09:50:49;8.90;;;5.78;;
11711;SDS011;5912;51.034;6.984;2022-09-24T09:53:21;7.32;;;5.30;;
11711;SDS011;5912;51.034;6.984;2022-09-24T09:55:57;7.57;;;5.38;;
11711;SDS011;5912;51.034;6.984;2022-09-24T09:58:31;7.50;;;5.82;;
11711;SDS011;5912;51.034;6.984;2022-09-24T10:01:05;7.75;;;5.70;;
11711;SDS011;5912;51.034;6.984;2022-09-24T10:03:32;8.95;;;6.20;;
11711;SDS011;5912;51.034;6.984;2022-09-24T10:06:35;7.40;;;5.55;;
11711;SDS011;5912;51.034;6.984;2022-09-24T10:11:37;5.53;;;4.68;;
11711;SDS011;5912;51.034;6.984;2022-09-24T10:14:08;7.47;;;6.47;;
11711;SDS011;5912;51.034;6.984;2022-09-24T10:16:38;9.07;;;6.00;;
11711;SDS011;5912;51.034;6.984;2022-09-24T10:19:21;7.15;;;5.55;;
11711;SDS011;5912;51.034;6.984;2022-09-24T10:21:49;8.52;;;6.30;;
11711;SDS011;5912;51.034;6.984;2022-09-24T10:24:20;10.77;;;6.35;;
11711;SDS011;5912;51.034;6.984;2022-09-24T10:26:49;10.40;;;6.82;;
11711;SDS011;5912;51.034;6.984;2022-09-24T10:29:20;9.38;;;6.88;;
11711;SDS011;5912;51.034;6.984;2022-09-24T10:32:13;9.57;;;6.78;;
11711;SDS011;5912;51.034;6.984;2022-09-24T10:35:00;7.47;;;5.55;;
11711;SDS011;5912;51.034;6.984;2022-09-24T10:37:29;10.15;;;6.72;;
11711;SDS011;5912;51.034;6.984;2022-09-24T10:39:56;7.30;;;6.38;;
11711;SDS011;5912;51.034;6.984;2022-09-24T10:42:27;6.63;;;5.15;;
11711;SDS011;5912;51.034;6.984;2022-09-24T10:44:54;9.13;;;5.75;;
11711;SDS011;5912;51.034;6.984;2022-09-24T10:50:02;7.10;;;5.50;;
11711;SDS011;5912;51.034;6.984;2022-09-24T10:57:57;7.40;;;5.47;;
11711;SDS011;5912;51.034;6.984;2022-09-24T11:00:39;7.55;;;6.55;;
11711;SDS011;5912;51.034;6.984;2022-09-24T11:11:28;7.78;;;5.78;;
11711;SDS011;5912;51.034;6.984;2022-09-24T11:22:14;7.35;;;5.18;;
11711;SDS011;5912;51.034;6.984;2022-09-24T11:24:44;7.28;;;5.57;;
11711;SDS011;5912;51.034;6.984;2022-09-24T11:41:10;8.07;;;5.78;;
11711;SDS011;5912;51.034;6.984;2022-09-24T11:46:55;6.70;;;4.78;;
11711;SDS011;5912;51.034;6.984;2022-09-24T11:52:37;7.22;;;5.07;;
11711;SDS011;5912;51.034;6.984;2022-09-24T11:58:16;6.95;;;4.50;;
11711;SDS011;5912;51.034;6.984;2022-09-24T12:00:56;7.50;;;5.10;;
11711;SDS011;5912;51.034;6.984;2022-09-24T12:06:19;8.10;;;5.47;;
11711;SDS011;5912;51.034;6.984;2022-09-24T12:08:55;7.35;;;6.00;;
11711;SDS011;5912;51.034;6.984;2022-09-24T12:11:29;7.53;;;5.68;;
11711;SDS011;5912;51.034;6.984;2022-09-24T12:16:31;6.55;;;5.20;;
11711;SDS011;5912;51.034;6.984;2022-09-24T12:19:00;6.65;;;5.10;;
11711;SDS011;5912;51.034;6.984;2022-09-24T12:21:32;6.22;;;4.55;;
11711;SDS011;5912;51.034;6.984;2022-09-24T12:24:05;6.45;;;5.15;;
11711;SDS011;5912;51.034;6.984;2022-09-24T12:26:37;6.30;;;4.57;;
11711;SDS011;5912;51.034;6.984;2022-09-24T12:31:57;5.82;;;4.35;;
11711;SDS011;5912;51.034;6.984;2022-09-24T12:35:00;7.25;;;5.22;;
11711;SDS011;5912;51.034;6.984;2022-09-24T12:37:37;8.38;;;5.28;;
11711;SDS011;5912;51.034;6.984;2022-09-24T12:43:18;8.02;;;5.53;;
11711;SDS011;5912;51.034;6.984;2022-09-24T12:46:33;6.75;;;4.43;;
11711;SDS011;5912;51.034;6.984;2022-09-24T12:49:01;6.03;;;4.65;;
11711;SDS011;5912;51.034;6.984;2022-09-24T12:51:36;5.93;;;4.47;;
11711;SDS011;5912;51.034;6.984;2022-09-24T12:57:03;5.55;;;4.13;;
11711;SDS011;5912;51.034;6.984;2022-09-24T12:59:54;6.78;;;4.25;;
11711;SDS011;5912;51.034;6.984;2022-09-24T13:02:21;4.70;;;3.97;;
11711;SDS011;5912;51.034;6.984;2022-09-24T13:12:40;6.00;;;4.35;;
11711;SDS011;5912;51.034;6.984;2022-09-24T13:15:07;7.47;;;5.43;;
11711;SDS011;5912;51.034;6.984;2022-09-24T13:17:47;6.07;;;4.65;;
11711;SDS011;5912;51.034;6.984;2022-09-24T13:20:28;5.32;;;4.18;;
11711;SDS011;5912;51.034;6.984;2022-09-24T13:23:09;5.47;;;4.15;;
11711;SDS011;5912;51.034;6.984;2022-09-24T13:25:53;5.28;;;3.78;;
11711;SDS011;5912;51.034;6.984;2022-09-24T13:28:26;5.53;;;4.50;;
11711;SDS011;5912;51.034;6.984;2022-09-24T13:31:01;5.00;;;4.13;;
11711;SDS011;5912;51.034;6.984;2022-09-24T13:33:38;6.70;;;4.50;;
11711;SDS011;5912;51.034;6.984;2022-09-24T13:36:10;6.07;;;4.43;;
11711;SDS011;5912;51.034;6.984;2022-09-24T13:41:21;4.97;;;4.07;;
11711;SDS011;5912;51.034;6.984;2022-09-24T13:44:04;5.45;;;3.80;;
11711;SDS011;5912;51.034;6.984;2022-09-24T13:46:39;4.45;;;4.05;;
11711;SDS011;5912;51.034;6.984;2022-09-24T13:49:11;5.13;;;4.40;;
11711;SDS011;5912;51.034;6.984;2022-09-24T13:51:41;4.80;;;3.92;;
11711;SDS011;5912;51.034;6.984;2022-09-24T13:54:21;5.10;;;4.20;;
11711;SDS011;5912;51.034;6.984;2022-09-24T13:57:25;6.53;;;4.75;;
11711;SDS011;5912;51.034;6.984;2022-09-24T14:00:01;5.38;;;4.40;;
11711;SDS011;5912;51.034;6.984;2022-09-24T14:02:35;5.45;;;4.25;;
11711;SDS011;5912;51.034;6.984;2022-09-24T14:05:06;5.88;;;4.53;;
11711;SDS011;5912;51.034;6.984;2022-09-24T14:07:39;6.57;;;5.18;;
11711;SDS011;5912;51.034;6.984;2022-09-24T14:10:05;6.18;;;5.35;;
11711;SDS011;5912;51.034;6.984;2022-09-24T14:12:37;7.22;;;4.40;;
11711;SDS011;5912;51.034;6.984;2022-09-24T14:15:03;5.38;;;4.32;;
11711;SDS011;5912;51.034;6.984;2022-09-24T14:17:41;6.57;;;4.55;;
11711;SDS011;5912;51.034;6.984;2022-09-24T14:20:13;6.15;;;4.47;;
11711;SDS011;5912;51.034;6.984;2022-09-24T14:22:40;6.28;;;4.07;;
11711;SDS011;5912;51.034;6.984;2022-09-24T14:25:13;6.05;;;4.47;;
11711;SDS011;5912;51.034;6.984;2022-09-24T14:27:42;6.00;;;4.40;;
11711;SDS011;5912;51.034;6.984;2022-09-24T14:30:23;5.20;;;4.10;;
11711;SDS011;5912;51.034;6.984;2022-09-24T14:32:51;5.72;;;4.43;;
11711;SDS011;5912;51.034;6.984;2022-09-24T14:35:37;5.72;;;4.22;;
11711;SDS011;5912;51.034;6.984;2022-09-24T14:38:05;6.22;;;4.50;;
11711;SDS011;5912;51.034;6.984;2022-09-24T14:40:39;6.47;;;4.63;;
11711;SDS011;5912;51.034;6.984;2022-09-24T14:43:13;5.50;;;4.55;;
11711;SDS011;5912;51.034;6.984;2022-09-24T14:45:42;4.20;;;3.80;;
11711;SDS011;5912;51.034;6.984;2022-09-24T14:50:43;6.75;;;5.05;;
11711;SDS011;5912;51.034;6.984;2022-09-24T14:53:16;4.70;;;4.20;;
11711;SDS011;5912;51.034;6.984;2022-09-24T14:55:46;5.13;;;4.00;;
11711;SDS011;5912;51.034;6.984;2022-09-24T15:00:58;7.25;;;4.88;;
11711;SDS011;5912;51.034;6.984;2022-09-24T15:03:51;6.32;;;4.78;;
11711;SDS011;5912;51.034;6.984;2022-09-24T15:06:30;7.70;;;5.30;;
11711;SDS011;5912;51.034;6.984;2022-09-24T15:08:58;5.38;;;4.50;;
11711;SDS011;5912;51.034;6.984;2022-09-24T15:11:27;7.95;;;3.92;;
11711;SDS011;5912;51.034;6.984;2022-09-24T15:14:02;4.65;;;4.13;;
11711;SDS011;5912;51.034;6.984;2022-09-24T15:16:40;6.20;;;4.60;;
11711;SDS011;5912;51.034;6.984;2022-09-24T15:21:35;7.10;;;5.40;;
11711;SDS011;5912;51.034;6.984;2022-09-24T15:24:01;7.60;;;5.90;;
11711;SDS011;5912;51.034;6.984;2022-09-24T15:26:30;7.85;;;5.10;;
11711;SDS011;5912;51.034;6.984;2022-09-24T15:28:58;6.53;;;5.55;;
11711;SDS011;5912;51.034;6.984;2022-09-24T15:31:24;7.60;;;5.40;;
11711;SDS011;5912;51.034;6.984;2022-09-24T15:33:50;7.00;;;5.65;;
11711;SDS011;5912;51.034;6.984;2022-09-24T15:36:16;8.82;;;6.53;;
11711;SDS011;5912;51.034;6.984;2022-09-24T15:38:45;9.45;;;6.75;;
11711;SDS011;5912;51.034;6.984;2022-09-24T15:41:24;6.95;;;5.55;;
11711;SDS011;5912;51.034;6.984;2022-09-24T15:46:45;7.07;;;5.43;;
11711;SDS011;5912;51.034;6.984;2022-09-24T15:49:12;6.40;;;5.68;;
11711;SDS011;5912;51.034;6.984;2022-09-24T15:51:37;6.60;;;5.28;;
11711;SDS011;5912;51.034;6.984;2022-09-24T15:54:04;8.07;;;6.47;;
11711;SDS011;5912;51.034;6.984;2022-09-24T15:56:30;7.05;;;6.18;;
11711;SDS011;5912;51.034;6.984;2022-09-24T15:58:57;6.65;;;5.93;;
11711;SDS011;5912;51.034;6.984;2022-09-24T16:01:23;8.85;;;6.22;;
11711;SDS011;5912;51.034;6.984;2022-09-24T16:03:48;11.00;;;6.80;;
11711;SDS011;5912;51.034;6.984;2022-09-24T16:06:13;9.15;;;5.90;;
11711;SDS011;5912;51.034;6.984;2022-09-24T16:08:39;9.32;;;6.90;;
11711;SDS011;5912;51.034;6.984;2022-09-24T16:11:06;8.80;;;6.90;;
11711;SDS011;5912;51.034;6.984;2022-09-24T16:13:31;9.02;;;6.70;;
11711;SDS011;5912;51.034;6.984;2022-09-24T16:15:59;9.10;;;6.45;;
11711;SDS011;5912;51.034;6.984;2022-09-24T16:18:24;13.35;;;9.85;;
11711;SDS011;5912;51.034;6.984;2022-09-24T16:20:50;14.23;;;11.40;;
11711;SDS011;5912;51.034;6.984;2022-09-24T16:23:15;21.83;;;15.70;;
11711;SDS011;5912;51.034;6.984;2022-09-24T16:25:48;29.10;;;23.90;;
11711;SDS011;5912;51.034;6.984;2022-09-24T16:28:18;43.53;;;33.38;;
11711;SDS011;5912;51.034;6.984;2022-09-24T16:30:43;40.17;;;32.75;;
11711;SDS011;5912;51.034;6.984;2022-09-24T16:33:09;17.58;;;13.25;;
11711;SDS011;5912;51.034;6.984;2022-09-24T16:35:34;10.32;;;7.95;;
11711;SDS011;5912;51.034;6.984;2022-09-24T16:38:00;17.20;;;13.38;;
11711;SDS011;5912;51.034;6.984;2022-09-24T16:40:25;37.28;;;25.60;;
11711;SDS011;5912;51.034;6.984;2022-09-24T16:42:50;58.63;;;43.53;;
11711;SDS011;5912;51.034;6.984;2022-09-24T16:45:15;32.47;;;26.30;;
11711;SDS011;5912;51.034;6.984;2022-09-24T16:47:42;33.97;;;26.95;;
11711;SDS011;5912;51.034;6.984;2022-09-24T16:50:07;18.17;;;13.38;;
11711;SDS011;5912;51.034;6.984;2022-09-24T16:52:33;13.55;;;9.52;;
11711;SDS011;5912;51.034;6.984;2022-09-24T16:54:58;21.17;;;13.90;;
11711;SDS011;5912;51.034;6.984;2022-09-24T16:57:23;33.55;;;21.35;;
11711;SDS011;5912;51.034;6.984;2022-09-24T16:59:49;33.67;;;21.02;;
11711;SDS011;5912;51.034;6.984;2022-09-24T17:02:14;29.25;;;18.48;;
11711;SDS011;5912;51.034;6.984;2022-09-24T17:04:39;21.05;;;14.20;;
11711;SDS011;5912;51.034;6.984;2022-09-24T17:07:05;15.20;;;10.02;;
11711;SDS011;5912;51.034;6.984;2022-09-24T17:09:30;14.35;;;12.50;;
11711;SDS011;5912;51.034;6.984;2022-09-24T17:12:14;12.52;;;10.85;;
11711;SDS011;5912;51.034;6.984;2022-09-24T17:14:39;10.13;;;8.55;;
11711;SDS011;5912;51.034;6.984;2022-09-24T17:17:05;9.23;;;7.60;;
11711;SDS011;5912;51.034;6.984;2022-09-24T17:19:31;10.32;;;7.47;;
11711;SDS011;5912;51.034;6.984;2022-09-24T17:21:56;8.98;;;7.43;;
11711;SDS011;5912;51.034;6.984;2022-09-24T17:24:22;12.18;;;9.85;;
11711;SDS011;5912;51.034;6.984;2022-09-24T17:26:48;13.65;;;9.18;;
11711;SDS011;5912;51.034;6.984;2022-09-24T17:29:13;10.75;;;7.60;;